sensor_id;sensor_type;location;lat;lon;timestamp;P1;durP1;ratioP1;P2;durP2;ratioP2
39524;SDS011;25203;50.754;6.978;2023-02-01T00:01:56;25.13;;;11.80;;
39524;SDS011;25203;50.754;6.978;2023-02-01T00:03:57;31.08;;;11.90;;
39524;SDS011;25203;50.754;6.978;2023-02-01T00:05:58;28.50;;;11.52;;
39524;SDS011;25203;50.754;6.978;2023-02-01T00:07:59;21.80;;;10.73;;
39524;SDS011;25203;50.754;6.978;2023-02-01T00:09:59;23.50;;;11.07;;
39524;SDS011;25203;50.754;6.978;2023-02-01T00:12:00;28.20;;;11.60;;
39524;SDS011;25203;50.754;6.978;2023-02-01T00:14:02;34.30;;;13.00;;
39524;SDS011;25203;50.754;6.978;2023-02-01T00:16:10;28.05;;;12.95;;
39524;SDS011;25203;50.754;6.978;2023-02-01T00:18:16;26.30;;;12.45;;
39524;SDS011;25203;50.754;6.978;2023-02-01T00:20:16;26.23;;;12.35;;
39524;SDS011;25203;50.754;6.978;2023-02-01T00:22:17;23.60;;;11.60;;
39524;SDS011;25203;50.754;6.978;2023-02-01T00:24:18;25.23;;;11.23;;
39524;SDS011;25203;50.754;6.978;2023-02-01T00:26:40;22.08;;;11.23;;
39524;SDS011;25203;50.754;6.978;2023-02-01T00:28:44;26.05;;;11.88;;
39524;SDS011;25203;50.754;6.978;2023-02-01T00:30:45;27.33;;;10.32;;
39524;SDS011;25203;50.754;6.978;2023-02-01T00:32:45;29.30;;;9.90;;
39524;SDS011;25203;50.754;6.978;2023-02-01T00:34:46;23.40;;;9.90;;
39524;SDS011;25203;50.754;6.978;2023-02-01T00:36:46;19.92;;;8.10;;
39524;SDS011;25203;50.754;6.978;2023-02-01T00:38:47;20.83;;;7.50;;
39524;SDS011;25203;50.754;6.978;2023-02-01T00:40:48;22.00;;;7.80;;
39524;SDS011;25203;50.754;6.978;2023-02-01T00:42:48;20.35;;;8.05;;
39524;SDS011;25203;50.754;6.978;2023-02-01T00:44:49;19.73;;;6.63;;
39524;SDS011;25203;50.754;6.978;2023-02-01T00:46:50;22.75;;;7.15;;
39524;SDS011;25203;50.754;6.978;2023-02-01T00:48:50;21.70;;;6.95;;
39524;SDS011;25203;50.754;6.978;2023-02-01T00:50:51;23.00;;;6.63;;
39524;SDS011;25203;50.754;6.978;2023-02-01T00:52:52;19.92;;;6.35;;
39524;SDS011;25203;50.754;6.978;2023-02-01T00:54:52;19.05;;;5.80;;
39524;SDS011;25203;50.754;6.978;2023-02-01T00:56:53;19.42;;;6.80;;
39524;SDS011;25203;50.754;6.978;2023-02-01T00:58:54;13.52;;;6.05;;
39524;SDS011;25203;50.754;6.978;2023-02-01T01:01:05;18.33;;;6.63;;
39524;SDS011;25203;50.754;6.978;2023-02-01T01:03:06;19.25;;;5.47;;
39524;SDS011;25203;50.754;6.978;2023-02-01T01:05:17;26.15;;;5.80;;
39524;SDS011;25203;50.754;6.978;2023-02-01T01:07:18;17.05;;;5.68;;
39524;SDS011;25203;50.754;6.978;2023-02-01T01:09:18;19.42;;;5.85;;
39524;SDS011;25203;50.754;6.978;2023-02-01T01:11:20;20.92;;;5.95;;
39524;SDS011;25203;50.754;6.978;2023-02-01T01:13:25;18.85;;;5.25;;
39524;SDS011;25203;50.754;6.978;2023-02-01T01:15:25;16.90;;;5.40;;
39524;SDS011;25203;50.754;6.978;2023-02-01T01:17:26;22.05;;;5.10;;
39524;SDS011;25203;50.754;6.978;2023-02-01T01:19:26;17.45;;;6.82;;
39524;SDS011;25203;50.754;6.978;2023-02-01T01:21:27;25.45;;;6.25;;
39524;SDS011;25203;50.754;6.978;2023-02-01T01:23:28;15.00;;;5.18;;
39524;SDS011;25203;50.754;6.978;2023-02-01T01:25:29;22.52;;;5.97;;
39524;SDS011;25203;50.754;6.978;2023-02-01T01:27:30;23.13;;;5.90;;
39524;SDS011;25203;50.754;6.978;2023-02-01T01:29:30;15.90;;;5.28;;
39524;SDS011;25203;50.754;6.978;2023-02-01T01:31:31;20.05;;;6.10;;
39524;SDS011;25203;50.754;6.978;2023-02-01T01:33:32;19.08;;;5.22;;
39524;SDS011;25203;50.754;6.978;2023-02-01T01:35:32;19.77;;;5.70;;
39524;SDS011;25203;50.754;6.978;2023-02-01T01:37:33;17.27;;;6.20;;
39524;SDS011;25203;50.754;6.978;2023-02-01T01:39:35;17.17;;;5.32;;
39524;SDS011;25203;50.754;6.978;2023-02-01T01:41:35;24.27;;;5.32;;
39524;SDS011;25203;50.754;6.978;2023-02-01T01:43:49;20.30;;;5.85;;
39524;SDS011;25203;50.754;6.978;2023-02-01T01:45:55;16.90;;;5.32;;
39524;SDS011;25203;50.754;6.978;2023-02-01T01:49:58;14.50;;;6.35;;
39524;SDS011;25203;50.754;6.978;2023-02-01T01:51:59;24.75;;;6.05;;
39524;SDS011;25203;50.754;6.978;2023-02-01T01:54:03;21.33;;;6.45;;
39524;SDS011;25203;50.754;6.978;2023-02-01T01:56:13;21.45;;;6.35;;
39524;SDS011;25203;50.754;6.978;2023-02-01T01:58:16;19.02;;;5.88;;
39524;SDS011;25203;50.754;6.978;2023-02-01T02:00:19;17.02;;;5.50;;
39524;SDS011;25203;50.754;6.978;2023-02-01T02:02:21;24.58;;;6.82;;
39524;SDS011;25203;50.754;6.978;2023-02-01T02:04:21;26.88;;;6.40;;
39524;SDS011;25203;50.754;6.978;2023-02-01T02:08:47;19.73;;;6.35;;
39524;SDS011;25203;50.754;6.978;2023-02-01T02:10:48;20.83;;;6.03;;
39524;SDS011;25203;50.754;6.978;2023-02-01T02:13:02;15.23;;;6.05;;
39524;SDS011;25203;50.754;6.978;2023-02-01T02:15:02;19.35;;;6.97;;
39524;SDS011;25203;50.754;6.978;2023-02-01T02:21:52;16.10;;;5.97;;
39524;SDS011;25203;50.754;6.978;2023-02-01T02:26:39;20.98;;;6.28;;
39524;SDS011;25203;50.754;6.978;2023-02-01T02:38:58;21.95;;;6.63;;
39524;SDS011;25203;50.754;6.978;2023-02-01T02:43:58;23.23;;;7.15;;
39524;SDS011;25203;50.754;6.978;2023-02-01T02:48:54;20.38;;;6.63;;
39524;SDS011;25203;50.754;6.978;2023-02-01T02:51:11;20.08;;;6.22;;
39524;SDS011;25203;50.754;6.978;2023-02-01T02:53:36;18.90;;;6.40;;
39524;SDS011;25203;50.754;6.978;2023-02-01T02:56:02;19.95;;;6.85;;
39524;SDS011;25203;50.754;6.978;2023-02-01T02:58:23;23.15;;;6.72;;
39524;SDS011;25203;50.754;6.978;2023-02-01T03:00:42;16.67;;;5.80;;
39524;SDS011;25203;50.754;6.978;2023-02-01T03:03:03;19.10;;;5.90;;
39524;SDS011;25203;50.754;6.978;2023-02-01T03:05:22;14.82;;;6.15;;
39524;SDS011;25203;50.754;6.978;2023-02-01T03:09:45;16.58;;;5.35;;
39524;SDS011;25203;50.754;6.978;2023-02-01T03:11:49;28.15;;;7.35;;
39524;SDS011;25203;50.754;6.978;2023-02-01T03:14:12;20.65;;;7.05;;
39524;SDS011;25203;50.754;6.978;2023-02-01T03:18:30;23.38;;;6.53;;
39524;SDS011;25203;50.754;6.978;2023-02-01T03:20:31;20.33;;;6.72;;
39524;SDS011;25203;50.754;6.978;2023-02-01T03:22:32;24.02;;;6.72;;
39524;SDS011;25203;50.754;6.978;2023-02-01T03:26:41;24.15;;;6.65;;
39524;SDS011;25203;50.754;6.978;2023-02-01T03:28:49;24.95;;;5.78;;
39524;SDS011;25203;50.754;6.978;2023-02-01T03:30:56;29.23;;;5.75;;
39524;SDS011;25203;50.754;6.978;2023-02-01T03:32:58;23.17;;;6.60;;
39524;SDS011;25203;50.754;6.978;2023-02-01T03:35:02;25.98;;;7.20;;
39524;SDS011;25203;50.754;6.978;2023-02-01T03:37:06;19.80;;;6.20;;
39524;SDS011;25203;50.754;6.978;2023-02-01T03:41:33;18.05;;;5.72;;
39524;SDS011;25203;50.754;6.978;2023-02-01T03:43:45;22.00;;;5.80;;
39524;SDS011;25203;50.754;6.978;2023-02-01T03:45:52;19.00;;;6.05;;
39524;SDS011;25203;50.754;6.978;2023-02-01T03:47:58;19.95;;;6.07;;
39524;SDS011;25203;50.754;6.978;2023-02-01T03:50:04;18.65;;;6.03;;
39524;SDS011;25203;50.754;6.978;2023-02-01T03:52:09;23.17;;;6.85;;
39524;SDS011;25203;50.754;6.978;2023-02-01T03:54:14;27.00;;;7.25;;
39524;SDS011;25203;50.754;6.978;2023-02-01T03:56:17;27.65;;;6.90;;
39524;SDS011;25203;50.754;6.978;2023-02-01T03:58:22;27.02;;;7.25;;
39524;SDS011;25203;50.754;6.978;2023-02-01T04:00:24;19.45;;;6.70;;
39524;SDS011;25203;50.754;6.978;2023-02-01T04:02:25;24.75;;;7.05;;
39524;SDS011;25203;50.754;6.978;2023-02-01T04:04:26;20.33;;;6.72;;
39524;SDS011;25203;50.754;6.978;2023-02-01T04:06:26;24.42;;;6.93;;
39524;SDS011;25203;50.754;6.978;2023-02-01T04:08:27;16.48;;;6.13;;
39524;SDS011;25203;50.754;6.978;2023-02-01T04:10:27;24.55;;;6.88;;
39524;SDS011;25203;50.754;6.978;2023-02-01T04:12:28;29.15;;;7.38;;
39524;SDS011;25203;50.754;6.978;2023-02-01T04:14:29;30.00;;;7.65;;
39524;SDS011;25203;50.754;6.978;2023-02-01T04:16:30;28.77;;;6.53;;
39524;SDS011;25203;50.754;6.978;2023-02-01T04:18:31;27.92;;;6.70;;
39524;SDS011;25203;50.754;6.978;2023-02-01T04:20:32;20.52;;;6.20;;
39524;SDS011;25203;50.754;6.978;2023-02-01T04:22:32;25.58;;;7.38;;
39524;SDS011;25203;50.754;6.978;2023-02-01T04:24:33;25.23;;;6.35;;
39524;SDS011;25203;50.754;6.978;2023-02-01T04:26:34;19.67;;;6.05;;
39524;SDS011;25203;50.754;6.978;2023-02-01T04:28:34;29.50;;;6.53;;
39524;SDS011;25203;50.754;6.978;2023-02-01T04:30:35;25.35;;;7.45;;
39524;SDS011;25203;50.754;6.978;2023-02-01T04:32:36;23.00;;;6.75;;
39524;SDS011;25203;50.754;6.978;2023-02-01T04:34:37;30.65;;;8.32;;
39524;SDS011;25203;50.754;6.978;2023-02-01T04:36:37;21.92;;;6.30;;
39524;SDS011;25203;50.754;6.978;2023-02-01T04:38:38;21.30;;;6.32;;
39524;SDS011;25203;50.754;6.978;2023-02-01T04:40:38;19.63;;;5.35;;
39524;SDS011;25203;50.754;6.978;2023-02-01T04:42:39;26.13;;;5.82;;
39524;SDS011;25203;50.754;6.978;2023-02-01T04:44:40;22.02;;;6.43;;
39524;SDS011;25203;50.754;6.978;2023-02-01T04:46:41;22.15;;;7.32;;
39524;SDS011;25203;50.754;6.978;2023-02-01T04:48:42;23.25;;;6.65;;
39524;SDS011;25203;50.754;6.978;2023-02-01T04:50:43;23.00;;;6.90;;
39524;SDS011;25203;50.754;6.978;2023-02-01T04:52:48;25.88;;;7.30;;
39524;SDS011;25203;50.754;6.978;2023-02-01T04:54:48;19.70;;;6.28;;
39524;SDS011;25203;50.754;6.978;2023-02-01T04:56:49;19.50;;;6.45;;
39524;SDS011;25203;50.754;6.978;2023-02-01T04:58:49;26.00;;;6.95;;
39524;SDS011;25203;50.754;6.978;2023-02-01T05:00:50;21.38;;;6.45;;
39524;SDS011;25203;50.754;6.978;2023-02-01T05:02:51;20.33;;;6.00;;
39524;SDS011;25203;50.754;6.978;2023-02-01T05:04:52;25.05;;;6.32;;
39524;SDS011;25203;50.754;6.978;2023-02-01T05:06:54;24.92;;;6.50;;
39524;SDS011;25203;50.754;6.978;2023-02-01T05:08:54;24.23;;;6.13;;
39524;SDS011;25203;50.754;6.978;2023-02-01T05:10:55;25.50;;;5.97;;
39524;SDS011;25203;50.754;6.978;2023-02-01T05:12:56;23.20;;;5.35;;
39524;SDS011;25203;50.754;6.978;2023-02-01T05:15:15;30.17;;;6.63;;
39524;SDS011;25203;50.754;6.978;2023-02-01T05:17:15;22.30;;;5.65;;
39524;SDS011;25203;50.754;6.978;2023-02-01T05:19:16;20.63;;;5.55;;
39524;SDS011;25203;50.754;6.978;2023-02-01T05:21:17;25.52;;;6.30;;
39524;SDS011;25203;50.754;6.978;2023-02-01T05:23:17;20.83;;;4.90;;
39524;SDS011;25203;50.754;6.978;2023-02-01T05:25:18;21.95;;;5.68;;
39524;SDS011;25203;50.754;6.978;2023-02-01T05:27:19;20.27;;;5.20;;
39524;SDS011;25203;50.754;6.978;2023-02-01T05:29:19;26.83;;;5.72;;
39524;SDS011;25203;50.754;6.978;2023-02-01T05:31:20;20.95;;;4.97;;
39524;SDS011;25203;50.754;6.978;2023-02-01T05:33:22;24.80;;;5.55;;
39524;SDS011;25203;50.754;6.978;2023-02-01T05:35:22;24.67;;;4.97;;
39524;SDS011;25203;50.754;6.978;2023-02-01T05:37:23;21.23;;;4.75;;
39524;SDS011;25203;50.754;6.978;2023-02-01T05:39:24;17.75;;;4.95;;
39524;SDS011;25203;50.754;6.978;2023-02-01T05:41:24;22.58;;;4.25;;
39524;SDS011;25203;50.754;6.978;2023-02-01T05:43:25;22.25;;;5.60;;
39524;SDS011;25203;50.754;6.978;2023-02-01T05:45:26;25.70;;;4.78;;
39524;SDS011;25203;50.754;6.978;2023-02-01T05:47:26;22.58;;;4.60;;
39524;SDS011;25203;50.754;6.978;2023-02-01T05:49:27;24.17;;;5.60;;
39524;SDS011;25203;50.754;6.978;2023-02-01T05:51:27;16.48;;;5.10;;
39524;SDS011;25203;50.754;6.978;2023-02-01T05:53:28;23.17;;;5.00;;
39524;SDS011;25203;50.754;6.978;2023-02-01T05:55:28;20.33;;;5.03;;
39524;SDS011;25203;50.754;6.978;2023-02-01T05:57:29;20.52;;;4.97;;
39524;SDS011;25203;50.754;6.978;2023-02-01T05:59:30;18.63;;;4.30;;
39524;SDS011;25203;50.754;6.978;2023-02-01T06:01:30;21.10;;;5.05;;
39524;SDS011;25203;50.754;6.978;2023-02-01T06:03:31;27.55;;;4.82;;
39524;SDS011;25203;50.754;6.978;2023-02-01T06:05:32;25.88;;;5.15;;
39524;SDS011;25203;50.754;6.978;2023-02-01T06:07:32;21.67;;;4.60;;
39524;SDS011;25203;50.754;6.978;2023-02-01T06:09:33;24.40;;;5.07;;
39524;SDS011;25203;50.754;6.978;2023-02-01T06:11:34;22.48;;;4.28;;
39524;SDS011;25203;50.754;6.978;2023-02-01T06:13:35;22.75;;;5.82;;
39524;SDS011;25203;50.754;6.978;2023-02-01T06:15:37;22.20;;;4.57;;
39524;SDS011;25203;50.754;6.978;2023-02-01T06:17:38;23.20;;;4.20;;
39524;SDS011;25203;50.754;6.978;2023-02-01T06:19:41;14.77;;;4.40;;
39524;SDS011;25203;50.754;6.978;2023-02-01T06:21:43;22.25;;;4.00;;
39524;SDS011;25203;50.754;6.978;2023-02-01T06:23:44;23.25;;;4.57;;
39524;SDS011;25203;50.754;6.978;2023-02-01T06:25:45;22.02;;;4.75;;
39524;SDS011;25203;50.754;6.978;2023-02-01T06:27:45;24.15;;;4.80;;
39524;SDS011;25203;50.754;6.978;2023-02-01T06:29:46;17.05;;;3.92;;
39524;SDS011;25203;50.754;6.978;2023-02-01T06:31:46;16.67;;;4.47;;
39524;SDS011;25203;50.754;6.978;2023-02-01T06:33:47;21.00;;;4.75;;
39524;SDS011;25203;50.754;6.978;2023-02-01T06:35:48;16.65;;;3.50;;
39524;SDS011;25203;50.754;6.978;2023-02-01T06:37:55;22.15;;;5.43;;
39524;SDS011;25203;50.754;6.978;2023-02-01T06:39:58;23.52;;;4.43;;
39524;SDS011;25203;50.754;6.978;2023-02-01T06:41:58;28.17;;;5.18;;
39524;SDS011;25203;50.754;6.978;2023-02-01T06:43:59;23.80;;;4.68;;
39524;SDS011;25203;50.754;6.978;2023-02-01T06:46:01;22.83;;;5.22;;
39524;SDS011;25203;50.754;6.978;2023-02-01T06:48:07;21.35;;;4.53;;
39524;SDS011;25203;50.754;6.978;2023-02-01T06:50:07;20.08;;;5.75;;
39524;SDS011;25203;50.754;6.978;2023-02-01T06:52:08;21.60;;;4.93;;
39524;SDS011;25203;50.754;6.978;2023-02-01T06:54:09;19.92;;;5.32;;
39524;SDS011;25203;50.754;6.978;2023-02-01T06:56:09;18.95;;;5.10;;
39524;SDS011;25203;50.754;6.978;2023-02-01T06:58:10;26.52;;;4.70;;
39524;SDS011;25203;50.754;6.978;2023-02-01T07:00:11;17.85;;;4.90;;
39524;SDS011;25203;50.754;6.978;2023-02-01T07:02:12;17.48;;;5.10;;
39524;SDS011;25203;50.754;6.978;2023-02-01T07:04:12;22.50;;;4.72;;
39524;SDS011;25203;50.754;6.978;2023-02-01T07:06:13;24.00;;;5.38;;
39524;SDS011;25203;50.754;6.978;2023-02-01T07:08:13;26.23;;;4.45;;
39524;SDS011;25203;50.754;6.978;2023-02-01T07:10:14;22.20;;;5.00;;
39524;SDS011;25203;50.754;6.978;2023-02-01T07:12:15;30.67;;;6.55;;
39524;SDS011;25203;50.754;6.978;2023-02-01T07:14:16;28.15;;;5.75;;
39524;SDS011;25203;50.754;6.978;2023-02-01T07:16:17;26.83;;;5.45;;
39524;SDS011;25203;50.754;6.978;2023-02-01T07:18:19;22.20;;;4.55;;
39524;SDS011;25203;50.754;6.978;2023-02-01T07:20:19;18.95;;;4.22;;
39524;SDS011;25203;50.754;6.978;2023-02-01T07:22:20;22.52;;;4.63;;
39524;SDS011;25203;50.754;6.978;2023-02-01T07:24:21;23.27;;;4.65;;
39524;SDS011;25203;50.754;6.978;2023-02-01T07:26:22;26.67;;;5.78;;
39524;SDS011;25203;50.754;6.978;2023-02-01T07:28:22;27.67;;;5.07;;
39524;SDS011;25203;50.754;6.978;2023-02-01T07:30:23;27.50;;;5.38;;
39524;SDS011;25203;50.754;6.978;2023-02-01T07:32:25;21.80;;;4.78;;
39524;SDS011;25203;50.754;6.978;2023-02-01T07:34:26;13.27;;;4.38;;
39524;SDS011;25203;50.754;6.978;2023-02-01T07:36:27;15.35;;;4.38;;
39524;SDS011;25203;50.754;6.978;2023-02-01T07:38:28;22.65;;;5.22;;
39524;SDS011;25203;50.754;6.978;2023-02-01T07:40:29;26.35;;;5.70;;
39524;SDS011;25203;50.754;6.978;2023-02-01T07:42:30;21.10;;;5.20;;
39524;SDS011;25203;50.754;6.978;2023-02-01T07:44:30;27.83;;;5.78;;
39524;SDS011;25203;50.754;6.978;2023-02-01T07:46:31;23.58;;;4.55;;
39524;SDS011;25203;50.754;6.978;2023-02-01T07:48:32;28.50;;;5.80;;
39524;SDS011;25203;50.754;6.978;2023-02-01T07:50:36;20.95;;;3.97;;
39524;SDS011;25203;50.754;6.978;2023-02-01T07:52:36;29.20;;;6.30;;
39524;SDS011;25203;50.754;6.978;2023-02-01T07:54:37;27.52;;;5.82;;
39524;SDS011;25203;50.754;6.978;2023-02-01T07:56:38;27.25;;;5.75;;
39524;SDS011;25203;50.754;6.978;2023-02-01T07:58:38;31.42;;;4.93;;
39524;SDS011;25203;50.754;6.978;2023-02-01T08:00:39;25.20;;;5.50;;
39524;SDS011;25203;50.754;6.978;2023-02-01T08:02:59;29.58;;;5.00;;
39524;SDS011;25203;50.754;6.978;2023-02-01T08:05:00;22.45;;;5.25;;
39524;SDS011;25203;50.754;6.978;2023-02-01T08:07:00;20.13;;;5.07;;
39524;SDS011;25203;50.754;6.978;2023-02-01T08:09:01;25.10;;;6.47;;
39524;SDS011;25203;50.754;6.978;2023-02-01T08:11:04;31.30;;;5.30;;
39524;SDS011;25203;50.754;6.978;2023-02-01T08:13:05;24.30;;;5.18;;
39524;SDS011;25203;50.754;6.978;2023-02-01T08:15:06;20.75;;;4.88;;
39524;SDS011;25203;50.754;6.978;2023-02-01T08:17:07;16.85;;;4.80;;
39524;SDS011;25203;50.754;6.978;2023-02-01T08:19:07;18.30;;;4.45;;
39524;SDS011;25203;50.754;6.978;2023-02-01T08:21:12;26.00;;;5.80;;
39524;SDS011;25203;50.754;6.978;2023-02-01T08:23:14;17.80;;;4.97;;
39524;SDS011;25203;50.754;6.978;2023-02-01T08:25:15;20.70;;;4.40;;
39524;SDS011;25203;50.754;6.978;2023-02-01T08:27:16;29.30;;;5.38;;
39524;SDS011;25203;50.754;6.978;2023-02-01T08:29:16;17.90;;;4.60;;
39524;SDS011;25203;50.754;6.978;2023-02-01T08:31:18;18.25;;;5.38;;
39524;SDS011;25203;50.754;6.978;2023-02-01T08:33:21;23.95;;;4.80;;
39524;SDS011;25203;50.754;6.978;2023-02-01T08:35:21;21.33;;;4.82;;
39524;SDS011;25203;50.754;6.978;2023-02-01T08:37:22;21.30;;;4.75;;
39524;SDS011;25203;50.754;6.978;2023-02-01T08:39:23;20.88;;;4.82;;
39524;SDS011;25203;50.754;6.978;2023-02-01T08:41:24;25.02;;;4.30;;
39524;SDS011;25203;50.754;6.978;2023-02-01T08:43:27;22.83;;;6.47;;
39524;SDS011;25203;50.754;6.978;2023-02-01T08:45:28;17.73;;;4.95;;
39524;SDS011;25203;50.754;6.978;2023-02-01T08:47:29;24.60;;;4.97;;
39524;SDS011;25203;50.754;6.978;2023-02-01T08:49:31;25.58;;;4.88;;
39524;SDS011;25203;50.754;6.978;2023-02-01T08:51:31;28.13;;;4.93;;
39524;SDS011;25203;50.754;6.978;2023-02-01T08:53:32;26.15;;;4.95;;
39524;SDS011;25203;50.754;6.978;2023-02-01T08:55:33;25.85;;;4.80;;
39524;SDS011;25203;50.754;6.978;2023-02-01T08:57:34;19.45;;;5.00;;
39524;SDS011;25203;50.754;6.978;2023-02-01T08:59:34;28.38;;;5.30;;
39524;SDS011;25203;50.754;6.978;2023-02-01T09:01:35;19.83;;;4.75;;
39524;SDS011;25203;50.754;6.978;2023-02-01T09:03:36;27.45;;;4.75;;
39524;SDS011;25203;50.754;6.978;2023-02-01T09:05:37;22.45;;;4.47;;
39524;SDS011;25203;50.754;6.978;2023-02-01T09:07:38;23.80;;;4.72;;
39524;SDS011;25203;50.754;6.978;2023-02-01T09:09:39;22.38;;;6.07;;
39524;SDS011;25203;50.754;6.978;2023-02-01T09:11:39;24.17;;;5.15;;
39524;SDS011;25203;50.754;6.978;2023-02-01T09:13:40;24.25;;;4.57;;
39524;SDS011;25203;50.754;6.978;2023-02-01T09:15:41;20.20;;;4.80;;
39524;SDS011;25203;50.754;6.978;2023-02-01T09:17:42;22.83;;;4.80;;
39524;SDS011;25203;50.754;6.978;2023-02-01T09:19:43;25.00;;;5.32;;
39524;SDS011;25203;50.754;6.978;2023-02-01T09:21:43;28.80;;;5.55;;
39524;SDS011;25203;50.754;6.978;2023-02-01T09:23:44;21.52;;;4.18;;
39524;SDS011;25203;50.754;6.978;2023-02-01T09:25:45;20.30;;;4.40;;
39524;SDS011;25203;50.754;6.978;2023-02-01T09:27:45;25.65;;;4.68;;
39524;SDS011;25203;50.754;6.978;2023-02-01T09:29:46;18.52;;;4.47;;
39524;SDS011;25203;50.754;6.978;2023-02-01T09:31:52;22.55;;;4.10;;
39524;SDS011;25203;50.754;6.978;2023-02-01T09:33:52;22.23;;;4.38;;
39524;SDS011;25203;50.754;6.978;2023-02-01T09:36:00;27.08;;;4.88;;
39524;SDS011;25203;50.754;6.978;2023-02-01T09:38:03;17.88;;;5.50;;
39524;SDS011;25203;50.754;6.978;2023-02-01T09:40:04;20.95;;;4.22;;
39524;SDS011;25203;50.754;6.978;2023-02-01T09:42:14;19.45;;;4.03;;
39524;SDS011;25203;50.754;6.978;2023-02-01T09:46:40;33.38;;;5.40;;
39524;SDS011;25203;50.754;6.978;2023-02-01T09:48:41;15.45;;;3.83;;
39524;SDS011;25203;50.754;6.978;2023-02-01T09:50:45;19.42;;;4.07;;
39524;SDS011;25203;50.754;6.978;2023-02-01T09:52:54;22.60;;;4.13;;
39524;SDS011;25203;50.754;6.978;2023-02-01T09:55:07;17.95;;;4.68;;
39524;SDS011;25203;50.754;6.978;2023-02-01T09:57:23;18.23;;;3.67;;
39524;SDS011;25203;50.754;6.978;2023-02-01T09:59:30;17.08;;;3.65;;
39524;SDS011;25203;50.754;6.978;2023-02-01T10:01:40;19.98;;;4.43;;
39524;SDS011;25203;50.754;6.978;2023-02-01T10:03:42;18.35;;;4.28;;
39524;SDS011;25203;50.754;6.978;2023-02-01T10:10:55;22.23;;;4.45;;
39524;SDS011;25203;50.754;6.978;2023-02-01T10:13:08;19.23;;;4.32;;
39524;SDS011;25203;50.754;6.978;2023-02-01T10:22:42;14.50;;;4.38;;
39524;SDS011;25203;50.754;6.978;2023-02-01T10:25:00;18.02;;;3.67;;
39524;SDS011;25203;50.754;6.978;2023-02-01T10:27:16;15.15;;;3.65;;
39524;SDS011;25203;50.754;6.978;2023-02-01T10:29:21;12.38;;;3.42;;
39524;SDS011;25203;50.754;6.978;2023-02-01T10:31:25;18.38;;;4.50;;
39524;SDS011;25203;50.754;6.978;2023-02-01T10:35:34;16.80;;;3.58;;
39524;SDS011;25203;50.754;6.978;2023-02-01T10:37:39;21.48;;;3.70;;
39524;SDS011;25203;50.754;6.978;2023-02-01T10:39:42;17.98;;;4.15;;
39524;SDS011;25203;50.754;6.978;2023-02-01T10:41:42;16.17;;;3.38;;
39524;SDS011;25203;50.754;6.978;2023-02-01T10:43:43;17.48;;;4.20;;
39524;SDS011;25203;50.754;6.978;2023-02-01T10:45:45;18.88;;;4.35;;
39524;SDS011;25203;50.754;6.978;2023-02-01T10:47:47;15.82;;;4.45;;
39524;SDS011;25203;50.754;6.978;2023-02-01T10:50:11;20.15;;;5.05;;
39524;SDS011;25203;50.754;6.978;2023-02-01T10:52:17;12.15;;;3.80;;
39524;SDS011;25203;50.754;6.978;2023-02-01T10:54:34;22.13;;;3.60;;
39524;SDS011;25203;50.754;6.978;2023-02-01T10:56:38;17.75;;;4.18;;
39524;SDS011;25203;50.754;6.978;2023-02-01T10:58:46;13.65;;;3.95;;
39524;SDS011;25203;50.754;6.978;2023-02-01T11:01:00;16.55;;;4.20;;
39524;SDS011;25203;50.754;6.978;2023-02-01T11:05:45;22.38;;;4.15;;
39524;SDS011;25203;50.754;6.978;2023-02-01T11:07:47;14.65;;;4.07;;
39524;SDS011;25203;50.754;6.978;2023-02-01T11:09:51;17.65;;;4.03;;
39524;SDS011;25203;50.754;6.978;2023-02-01T11:11:58;16.40;;;4.20;;
39524;SDS011;25203;50.754;6.978;2023-02-01T11:14:01;19.05;;;3.92;;
39524;SDS011;25203;50.754;6.978;2023-02-01T11:16:14;16.55;;;4.35;;
39524;SDS011;25203;50.754;6.978;2023-02-01T11:18:17;15.35;;;3.83;;
39524;SDS011;25203;50.754;6.978;2023-02-01T11:22:31;17.65;;;4.60;;
39524;SDS011;25203;50.754;6.978;2023-02-01T11:24:33;22.83;;;4.28;;
39524;SDS011;25203;50.754;6.978;2023-02-01T11:26:39;13.35;;;4.15;;
39524;SDS011;25203;50.754;6.978;2023-02-01T11:28:44;13.73;;;3.58;;
39524;SDS011;25203;50.754;6.978;2023-02-01T11:30:58;12.95;;;4.03;;
39524;SDS011;25203;50.754;6.978;2023-02-01T11:33:02;18.98;;;4.20;;
39524;SDS011;25203;50.754;6.978;2023-02-01T11:35:06;17.98;;;4.28;;
39524;SDS011;25203;50.754;6.978;2023-02-01T11:37:21;20.88;;;3.90;;
39524;SDS011;25203;50.754;6.978;2023-02-01T11:39:30;14.73;;;3.88;;
39524;SDS011;25203;50.754;6.978;2023-02-01T11:41:33;20.13;;;4.13;;
39524;SDS011;25203;50.754;6.978;2023-02-01T11:43:35;14.50;;;3.67;;
39524;SDS011;25203;50.754;6.978;2023-02-01T11:45:35;21.25;;;4.13;;
39524;SDS011;25203;50.754;6.978;2023-02-01T11:47:40;17.10;;;3.90;;
39524;SDS011;25203;50.754;6.978;2023-02-01T11:49:41;14.57;;;3.42;;
39524;SDS011;25203;50.754;6.978;2023-02-01T11:52:03;16.13;;;3.35;;
39524;SDS011;25203;50.754;6.978;2023-02-01T11:54:28;11.43;;;3.30;;
39524;SDS011;25203;50.754;6.978;2023-02-01T12:07:35;15.63;;;4.53;;
39524;SDS011;25203;50.754;6.978;2023-02-01T12:16:22;17.15;;;4.45;;
39524;SDS011;25203;50.754;6.978;2023-02-01T12:34:59;16.88;;;3.67;;
39524;SDS011;25203;50.754;6.978;2023-02-01T12:39:32;15.63;;;4.63;;
39524;SDS011;25203;50.754;6.978;2023-02-01T12:46:07;14.55;;;4.13;;
39524;SDS011;25203;50.754;6.978;2023-02-01T12:48:30;18.33;;;3.75;;
39524;SDS011;25203;50.754;6.978;2023-02-01T12:50:35;14.50;;;3.13;;
39524;SDS011;25203;50.754;6.978;2023-02-01T12:52:46;20.83;;;4.07;;
39524;SDS011;25203;50.754;6.978;2023-02-01T12:54:55;13.80;;;3.78;;
39524;SDS011;25203;50.754;6.978;2023-02-01T12:57:25;14.93;;;4.10;;
39524;SDS011;25203;50.754;6.978;2023-02-01T13:09:04;17.27;;;4.53;;
39524;SDS011;25203;50.754;6.978;2023-02-01T13:11:23;13.88;;;3.72;;
39524;SDS011;25203;50.754;6.978;2023-02-01T13:13:59;14.15;;;3.30;;
39524;SDS011;25203;50.754;6.978;2023-02-01T13:18:34;18.45;;;3.95;;
39524;SDS011;25203;50.754;6.978;2023-02-01T13:20:48;15.77;;;3.50;;
39524;SDS011;25203;50.754;6.978;2023-02-01T13:23:03;14.50;;;3.97;;
39524;SDS011;25203;50.754;6.978;2023-02-01T13:25:15;14.70;;;4.20;;
39524;SDS011;25203;50.754;6.978;2023-02-01T13:27:27;19.65;;;4.30;;
39524;SDS011;25203;50.754;6.978;2023-02-01T13:29:30;11.88;;;3.42;;
39524;SDS011;25203;50.754;6.978;2023-02-01T13:31:47;18.92;;;3.67;;
39524;SDS011;25203;50.754;6.978;2023-02-01T13:34:29;18.10;;;3.50;;
39524;SDS011;25203;50.754;6.978;2023-02-01T13:41:41;20.08;;;3.05;;
39524;SDS011;25203;50.754;6.978;2023-02-01T13:43:52;17.45;;;4.43;;
39524;SDS011;25203;50.754;6.978;2023-02-01T13:46:11;16.73;;;3.40;;
39524;SDS011;25203;50.754;6.978;2023-02-01T13:48:18;15.75;;;3.85;;
39524;SDS011;25203;50.754;6.978;2023-02-01T13:50:33;14.95;;;3.22;;
39524;SDS011;25203;50.754;6.978;2023-02-01T13:52:39;16.05;;;3.83;;
39524;SDS011;25203;50.754;6.978;2023-02-01T13:54:43;15.48;;;3.95;;
39524;SDS011;25203;50.754;6.978;2023-02-01T13:56:43;15.85;;;3.30;;
39524;SDS011;25203;50.754;6.978;2023-02-01T13:58:45;16.48;;;4.00;;
39524;SDS011;25203;50.754;6.978;2023-02-01T14:00:47;11.25;;;3.13;;
39524;SDS011;25203;50.754;6.978;2023-02-01T14:05:01;13.38;;;3.30;;
39524;SDS011;25203;50.754;6.978;2023-02-01T14:07:01;9.93;;;3.35;;
39524;SDS011;25203;50.754;6.978;2023-02-01T14:11:31;15.05;;;3.72;;
39524;SDS011;25203;50.754;6.978;2023-02-01T14:15:46;13.02;;;3.88;;
39524;SDS011;25203;50.754;6.978;2023-02-01T14:18:01;15.48;;;3.13;;
39524;SDS011;25203;50.754;6.978;2023-02-01T14:20:41;16.92;;;3.40;;